createdAt,value
2019-01-03T00:00:04.191Z,91.92
2019-01-03T00:02:34.266Z,91.83
2019-01-03T00:05:10.358Z,91.47
2019-01-03T00:07:40.651Z,91.55
2019-01-03T00:10:13.854Z,91.45
2019-01-03T00:12:50.066Z,91.52
2019-01-03T00:15:36.978Z,91.43
2019-01-03T00:18:23.552Z,91.48
2019-01-03T00:20:59.105Z,91.62
2019-01-03T00:23:38.242Z,91.76
2019-01-03T00:26:28.343Z,91.82
2019-01-03T00:29:16.658Z,91.54
2019-01-03T00:32:03.512Z,91.63
2019-01-03T00:34:36.499Z,91.66
2019-01-03T00:37:22.142Z,91.60
2019-01-03T00:39:55.374Z,91.48
2019-01-03T00:42:26.258Z,91.58
2019-01-03T00:44:59.772Z,91.50
2019-01-03T00:47:30.146Z,91.75
2019-01-03T00:50:11.998Z,91.68
2019-01-03T00:53:00.115Z,91.54
2019-01-03T00:55:30.443Z,91.82
2019-01-03T00:58:17.159Z,91.48
2019-01-03T01:00:59.501Z,91.70
2019-01-03T01:03:46.042Z,91.90
2019-01-03T01:06:32.396Z,92.05
2019-01-03T01:09:17.580Z,92.47
2019-01-03T01:11:47.964Z,92.46
2019-01-03T01:14:33.399Z,92.58
2019-01-03T01:17:11.943Z,92.78
2019-01-03T01:19:47.873Z,92.33
2019-01-03T01:22:30.050Z,92.58
2019-01-03T01:25:15.779Z,92.64
2019-01-03T01:28:00.761Z,92.23
2019-01-03T01:30:33.664Z,92.52
2019-01-03T01:33:16.009Z,92.38
2019-01-03T01:35:47.005Z,92.63
2019-01-03T01:38:33.263Z,92.61
2019-01-03T01:41:06.065Z,92.72
2019-01-03T01:43:42.293Z,93.02
2019-01-03T01:46:15.078Z,92.96
2019-01-03T01:49:03.289Z,92.87
2019-01-03T01:51:39.692Z,93.17
2019-01-03T01:54:12.491Z,93.30
2019-01-03T01:56:42.566Z,93.55
2019-01-03T01:59:12.624Z,93.60
2019-01-03T02:01:42.974Z,93.51
2019-01-03T02:04:29.905Z,93.17
2019-01-03T02:07:00.233Z,93.11
2019-01-03T02:09:30.319Z,93.32
2019-01-03T02:12:17.141Z,93.51
2019-01-03T02:15:05.245Z,93.51
2019-01-03T02:17:35.600Z,93.51
2019-01-03T02:20:15.649Z,93.41
2019-01-03T02:22:48.767Z,93.58
2019-01-03T02:25:35.809Z,93.44
2019-01-03T02:28:05.951Z,93.44
2019-01-03T02:30:39.234Z,93.69
2019-01-03T02:33:24.424Z,93.47
2019-01-03T02:35:54.818Z,93.85
2019-01-03T02:38:27.847Z,93.50
2019-01-03T02:41:00.994Z,93.53
2019-01-03T02:43:43.298Z,93.62
2019-01-03T02:46:13.641Z,93.85
2019-01-03T02:48:43.749Z,94.10
2019-01-03T02:51:14.169Z,93.87
2019-01-03T02:53:44.627Z,94.04
2019-01-03T02:56:23.318Z,93.83
2019-01-03T02:58:56.790Z,93.86
2019-01-03T03:01:30.411Z,94.01
2019-01-03T03:04:04.211Z,94.10
2019-01-03T03:06:34.285Z,93.72
2019-01-03T03:09:10.201Z,93.78
2019-01-03T03:11:58.385Z,94.04
2019-01-03T03:14:40.756Z,94.20
2019-01-03T03:17:26.995Z,94.42
2019-01-03T03:20:03.015Z,94.35
2019-01-03T03:22:42.025Z,94.31
2019-01-03T03:25:12.474Z,94.39
2019-01-03T03:27:42.773Z,94.35
2019-01-03T03:30:13.196Z,94.39
2019-01-03T03:33:01.728Z,94.43
2019-01-03T03:35:34.491Z,94.55
2019-01-03T03:38:13.508Z,94.47
2019-01-03T03:40:59.810Z,94.14
2019-01-03T03:43:44.936Z,94.47
2019-01-03T03:46:21.507Z,94.93
2019-01-03T03:48:51.632Z,95.19
2019-01-03T03:51:38.050Z,95.21
2019-01-03T03:54:08.101Z,95.25
2019-01-03T03:56:44.204Z,95.00
2019-01-03T03:59:23.839Z,95.06
2019-01-03T04:01:53.886Z,95.23
2019-01-03T04:04:40.675Z,95.19
2019-01-03T04:07:11.019Z,95.07
2019-01-03T04:09:57.747Z,95.28
2019-01-03T04:12:30.524Z,95.17
2019-01-03T04:15:19.004Z,94.91
2019-01-03T04:17:54.769Z,95.10
2019-01-03T04:20:33.989Z,95.09
2019-01-03T04:23:13.404Z,95.25
2019-01-03T04:25:55.516Z,95.16
2019-01-03T04:28:28.783Z,95.30
2019-01-03T04:31:08.415Z,95.33
2019-01-03T04:33:41.399Z,95.12
2019-01-03T04:36:29.797Z,95.40
2019-01-03T04:39:02.515Z,95.32
2019-01-03T04:41:41.595Z,95.33
2019-01-03T04:44:11.989Z,95.71
2019-01-03T04:46:45.273Z,95.87
2019-01-03T04:49:31.701Z,95.64
2019-01-03T04:52:10.984Z,95.61
2019-01-03T04:54:57.233Z,95.72
2019-01-03T04:57:32.848Z,95.80
2019-01-03T05:00:19.233Z,95.98
2019-01-03T05:03:06.139Z,96.03
2019-01-03T05:05:48.751Z,96.22
2019-01-03T05:08:19.083Z,96.23
2019-01-03T05:10:52.512Z,96.26
2019-01-03T05:13:25.425Z,96.44
2019-01-03T05:16:12.221Z,96.64
2019-01-03T05:18:58.316Z,96.82
2019-01-03T05:21:44.824Z,96.91
2019-01-03T05:24:31.049Z,96.96
2019-01-03T05:27:01.399Z,96.75
2019-01-03T05:29:47.887Z,96.90
2019-01-03T05:32:34.170Z,96.90
2019-01-03T05:35:04.606Z,97.11
2019-01-03T05:37:35.875Z,97.17
2019-01-03T05:40:09.425Z,97.34
2019-01-03T05:42:42.567Z,97.32
2019-01-03T05:45:24.723Z,97.16
2019-01-03T05:47:55.107Z,97.15
2019-01-03T05:50:25.547Z,97.37
2019-01-03T05:53:01.759Z,97.42
2019-01-03T05:55:37.796Z,97.49
2019-01-03T05:58:24.526Z,97.58
2019-01-03T06:00:57.953Z,97.49
2019-01-03T06:03:28.361Z,97.70
2019-01-03T06:05:58.704Z,97.77
2019-01-03T06:08:29.029Z,97.86
2019-01-03T06:11:04.996Z,97.86
2019-01-03T06:13:41.128Z,97.90
2019-01-03T06:16:27.679Z,98.11
2019-01-03T06:19:10.099Z,98.25
2019-01-03T06:21:56.953Z,98.32
2019-01-03T06:24:38.736Z,98.28
2019-01-03T06:27:20.834Z,98.48
2019-01-03T06:29:51.201Z,98.55
2019-01-03T06:32:30.523Z,98.61
2019-01-03T06:35:03.117Z,98.65
2019-01-03T06:37:42.179Z,98.68
2019-01-03T06:40:24.897Z,98.73
2019-01-03T06:43:01.222Z,98.79
2019-01-03T06:45:37.035Z,98.82
2019-01-03T06:48:20.040Z,98.91
2019-01-03T06:51:03.268Z,98.99
2019-01-03T06:53:48.476Z,99.00
2019-01-03T06:56:18.864Z,99.03
2019-01-03T06:58:58.113Z,99.12
2019-01-03T07:01:37.345Z,99.14
2019-01-03T07:04:07.672Z,99.21
2019-01-03T07:06:54.035Z,99.23
2019-01-03T07:09:27.107Z,99.26
2019-01-03T07:12:14.061Z,99.37
2019-01-03T07:14:46.857Z,99.40
2019-01-03T07:17:33.425Z,99.68
2019-01-03T07:20:05.881Z,99.94
2019-01-03T07:22:52.307Z,100.00
2019-01-03T07:25:34.671Z,100.00
2019-01-03T07:28:21.320Z,99.91
2019-01-03T07:31:03.654Z,99.97
2019-01-03T07:33:33.986Z,99.93
2019-01-03T07:36:04.386Z,99.86
2019-01-03T07:38:43.362Z,99.92
2019-01-03T07:41:26.069Z,99.95
2019-01-03T07:44:12.590Z,99.87
2019-01-03T07:46:42.810Z,99.88
2019-01-03T07:49:29.170Z,99.90
2019-01-03T07:52:08.528Z,99.81
2019-01-03T07:54:50.930Z,99.81
2019-01-03T07:57:21.290Z,99.75
2019-01-03T08:00:00.920Z,99.79
2019-01-03T08:02:43.421Z,99.73
2019-01-03T08:05:19.441Z,99.67
2019-01-03T08:07:55.531Z,99.66
2019-01-03T08:10:31.884Z,99.48
2019-01-03T08:13:02.272Z,99.45
2019-01-03T08:15:49.037Z,99.34
2019-01-03T08:18:19.401Z,99.32
2019-01-03T08:20:49.874Z,99.11
2019-01-03T08:23:36.907Z,99.08
2019-01-03T08:26:07.380Z,99.08
2019-01-03T08:28:37.460Z,99.08
2019-01-03T08:31:07.887Z,99.03
2019-01-03T08:33:56.928Z,98.82
2019-01-03T08:36:32.962Z,98.78
2019-01-03T08:39:20.879Z,98.68
2019-01-03T08:41:51.055Z,98.73
2019-01-03T08:44:23.919Z,98.46
2019-01-03T08:46:53.983Z,98.43
2019-01-03T08:49:26.761Z,98.41
2019-01-03T08:51:56.891Z,98.32
2019-01-03T08:54:30.320Z,98.03
2019-01-03T08:57:09.424Z,97.88
2019-01-03T08:59:39.835Z,97.81
2019-01-03T09:02:25.817Z,97.76
2019-01-03T09:05:01.568Z,97.80
2019-01-03T09:07:48.374Z,97.69
2019-01-03T09:10:34.951Z,97.56
2019-01-03T09:13:17.435Z,97.65
2019-01-03T09:15:47.583Z,97.72
2019-01-03T09:18:33.001Z,97.48
2019-01-03T09:21:03.107Z,97.40
2019-01-03T09:23:49.947Z,97.44
2019-01-03T09:26:20.313Z,97.41
2019-01-03T09:29:08.761Z,97.13
2019-01-03T09:31:57.016Z,97.22
2019-01-03T09:34:29.995Z,97.19
2019-01-03T09:37:09.068Z,97.03
2019-01-03T09:39:49.755Z,96.97
2019-01-03T09:42:35.134Z,97.19
2019-01-03T09:45:04.088Z,97.13
2019-01-03T09:47:32.767Z,97.14
2019-01-03T09:50:03.234Z,97.04
2019-01-03T09:52:33.299Z,97.24
2019-01-03T09:55:01.954Z,97.21
2019-01-03T09:57:30.682Z,97.16
2019-01-03T09:59:59.365Z,97.06
2019-01-03T10:02:28.207Z,97.23
2019-01-03T10:04:56.643Z,96.54
2019-01-03T10:07:25.346Z,96.39
2019-01-03T10:09:53.844Z,96.36
2019-01-03T10:12:22.516Z,96.65
2019-01-03T10:14:51.218Z,96.15
2019-01-03T10:17:19.682Z,96.01
2019-01-03T10:19:48.370Z,95.44
2019-01-03T10:22:17.284Z,95.12
2019-01-03T10:24:46.013Z,95.27
2019-01-03T10:27:16.394Z,95.31
2019-01-03T10:29:45.565Z,94.93
2019-01-03T10:32:14.140Z,94.78
2019-01-03T10:34:42.555Z,94.47
2019-01-03T10:37:11.328Z,94.37
2019-01-03T10:39:40.000Z,93.92
2019-01-03T10:42:08.702Z,93.82
2019-01-03T10:44:37.373Z,94.20
2019-01-03T10:47:06.094Z,94.29
2019-01-03T10:49:34.566Z,94.17
2019-01-03T10:52:02.975Z,94.08
2019-01-03T10:54:31.679Z,94.09
2019-01-03T10:57:00.165Z,94.12
2019-01-03T10:59:28.930Z,94.01
2019-01-03T11:01:57.711Z,93.77
2019-01-03T11:04:26.158Z,93.98
2019-01-03T11:06:54.572Z,94.18
2019-01-03T11:09:23.293Z,93.82
2019-01-03T11:11:51.983Z,93.65
2019-01-03T11:14:20.373Z,93.93
2019-01-03T11:16:48.810Z,93.56
2019-01-03T11:19:17.507Z,93.70
2019-01-03T11:21:45.920Z,93.61
2019-01-03T11:24:14.596Z,93.71
2019-01-03T11:26:43.091Z,93.83
2019-01-03T11:29:11.792Z,93.54
2019-01-03T11:31:40.566Z,93.41
2019-01-03T11:34:09.249Z,92.93
2019-01-03T11:36:37.999Z,92.82
2019-01-03T11:39:07.458Z,92.80
2019-01-03T11:41:36.204Z,92.96
2019-01-03T11:44:04.620Z,92.60
2019-01-03T11:46:33.321Z,92.57
2019-01-03T11:49:02.124Z,92.03
2019-01-03T11:51:30.819Z,92.24
2019-01-03T11:53:59.351Z,92.23
2019-01-03T11:56:28.023Z,92.39
2019-01-03T11:58:56.443Z,92.35
2019-01-03T12:01:25.140Z,92.72
2019-01-03T12:03:53.938Z,92.60
2019-01-03T12:06:22.352Z,93.22
2019-01-03T12:08:51.079Z,93.69
2019-01-03T12:11:19.788Z,94.27
2019-01-03T12:13:48.477Z,93.84
2019-01-03T12:16:17.175Z,93.71
2019-01-03T12:18:45.947Z,93.37
2019-01-03T12:21:14.643Z,93.36
2019-01-03T12:23:43.328Z,93.56
2019-01-03T12:26:12.035Z,94.22
2019-01-03T12:28:40.737Z,94.04
2019-01-03T12:31:09.572Z,93.06
2019-01-03T12:33:38.286Z,92.51
2019-01-03T12:36:07.016Z,93.22
2019-01-03T12:38:35.446Z,93.36
2019-01-03T12:41:05.366Z,92.77
2019-01-03T12:43:34.036Z,92.93
2019-01-03T12:46:02.660Z,91.72
2019-01-03T12:48:31.385Z,91.62
2019-01-03T12:51:00.064Z,91.62
2019-01-03T12:53:28.762Z,91.48
2019-01-03T12:55:57.444Z,90.94
2019-01-03T12:58:26.199Z,91.09
2019-01-03T13:00:56.288Z,90.85
2019-01-03T13:03:25.015Z,91.12
2019-01-03T13:05:53.718Z,91.02
2019-01-03T13:08:22.540Z,91.57
2019-01-03T13:10:51.338Z,91.90
2019-01-03T13:13:19.738Z,91.61
2019-01-03T13:15:48.493Z,91.96
2019-01-03T13:18:17.192Z,91.35
2019-01-03T13:20:45.886Z,91.33
2019-01-03T13:23:16.301Z,91.62
2019-01-03T13:25:45.096Z,91.67
2019-01-03T13:28:13.772Z,91.46
2019-01-03T13:30:42.187Z,91.61
2019-01-03T13:33:10.896Z,91.48
2019-01-03T13:35:39.661Z,91.36
2019-01-03T13:38:08.362Z,91.11
2019-01-03T13:40:36.768Z,90.84
2019-01-03T13:43:05.532Z,90.92
2019-01-03T13:45:33.968Z,90.98
2019-01-03T13:48:02.766Z,90.24
2019-01-03T13:50:31.466Z,89.66
2019-01-03T13:53:00.210Z,89.94
2019-01-03T13:55:28.954Z,90.05
2019-01-03T13:57:58.925Z,90.18
2019-01-03T14:00:27.698Z,90.42
2019-01-03T14:02:56.396Z,90.52
2019-01-03T14:05:25.157Z,90.26
2019-01-03T14:07:53.898Z,90.78
2019-01-03T14:10:22.705Z,91.06
2019-01-03T14:12:51.461Z,89.96
2019-01-03T14:15:19.911Z,89.70
2019-01-03T14:17:48.624Z,90.16
2019-01-03T14:20:17.449Z,90.14
2019-01-03T14:22:45.861Z,89.87
2019-01-03T14:25:14.618Z,89.92
2019-01-03T14:27:43.916Z,90.22
2019-01-03T14:30:12.726Z,90.79
2019-01-03T14:32:41.256Z,90.79
2019-01-03T14:35:10.040Z,90.73
2019-01-03T14:37:40.346Z,90.07
2019-01-03T14:40:09.482Z,89.89
2019-01-03T14:42:38.170Z,89.87
2019-01-03T14:45:07.153Z,90.09
2019-01-03T14:47:36.413Z,89.45
2019-01-03T14:50:07.250Z,89.13
2019-01-03T14:52:35.918Z,89.14
2019-01-03T14:55:07.096Z,89.42
2019-01-03T14:57:35.846Z,88.44
2019-01-03T15:00:08.345Z,88.33
2019-01-03T15:02:37.128Z,88.70
2019-01-03T15:05:05.721Z,88.57
2019-01-03T15:07:34.346Z,88.49
2019-01-03T15:10:02.818Z,89.03
2019-01-03T15:12:33.199Z,88.78
2019-01-03T15:15:01.893Z,88.90
2019-01-03T15:17:30.610Z,89.41
2019-01-03T15:19:58.999Z,89.19
2019-01-03T15:22:27.697Z,89.13
2019-01-03T15:24:56.379Z,88.82
2019-01-03T15:27:24.910Z,88.82
2019-01-03T15:29:53.307Z,88.72
2019-01-03T15:32:22.015Z,88.67
2019-01-03T15:34:50.764Z,88.81
2019-01-03T15:37:19.287Z,88.42
2019-01-03T15:39:47.973Z,88.38
2019-01-03T15:42:16.727Z,88.81
2019-01-03T15:44:45.400Z,89.35
2019-01-03T15:47:14.126Z,88.98
2019-01-03T15:49:42.580Z,89.13
2019-01-03T15:52:12.822Z,88.84
2019-01-03T15:54:41.620Z,88.60
2019-01-03T15:57:10.055Z,88.64
2019-01-03T15:59:39.973Z,88.74
2019-01-03T16:02:08.935Z,89.29
2019-01-03T16:04:37.400Z,89.00
2019-01-03T16:07:06.102Z,88.89
2019-01-03T16:09:34.803Z,88.87
2019-01-03T16:12:03.498Z,88.41
2019-01-03T16:14:32.188Z,88.93
2019-01-03T16:17:00.849Z,89.13
2019-01-03T16:19:29.581Z,89.13
2019-01-03T16:21:58.341Z,89.31
2019-01-03T16:24:26.850Z,89.51
2019-01-03T16:26:55.627Z,89.31
2019-01-03T16:29:24.393Z,89.15
2019-01-03T16:31:52.879Z,89.05
2019-01-03T16:34:21.551Z,89.42
2019-01-03T16:36:50.340Z,89.13
2019-01-03T16:39:19.103Z,88.80
2019-01-03T16:41:47.850Z,88.93
2019-01-03T16:44:16.348Z,89.18
2019-01-03T16:46:45.148Z,89.48
2019-01-03T16:49:13.651Z,89.07
2019-01-03T16:51:42.133Z,88.82
2019-01-03T16:54:11.017Z,88.62
2019-01-03T16:56:40.272Z,88.69
2019-01-03T16:59:08.988Z,88.73
2019-01-03T17:01:37.674Z,88.94
2019-01-03T17:04:06.332Z,88.68
2019-01-03T17:06:35.680Z,88.63
2019-01-03T17:09:04.858Z,89.02
2019-01-03T17:11:33.546Z,89.13
2019-01-03T17:14:02.318Z,89.46
2019-01-03T17:16:30.996Z,89.51
2019-01-03T17:18:59.427Z,89.65
2019-01-03T17:21:28.114Z,89.13
2019-01-03T17:23:56.799Z,89.52
2019-01-03T17:26:25.521Z,89.48
2019-01-03T17:28:54.302Z,89.61
2019-01-03T17:31:22.707Z,89.68
2019-01-03T17:33:51.516Z,89.61
2019-01-03T17:36:20.198Z,89.46
2019-01-03T17:38:48.953Z,89.47
2019-01-03T17:41:17.640Z,89.59
2019-01-03T17:43:46.450Z,89.56
2019-01-03T17:46:15.129Z,89.82
2019-01-03T17:48:43.548Z,89.64
2019-01-03T17:51:11.997Z,89.90
2019-01-03T17:53:40.779Z,89.74
2019-01-03T17:56:09.444Z,89.79
2019-01-03T17:58:38.144Z,89.57
2019-01-03T18:01:06.955Z,89.69
2019-01-03T18:03:35.382Z,89.54
2019-01-03T18:06:03.861Z,89.92
2019-01-03T18:08:32.682Z,90.00
2019-01-03T18:11:01.429Z,90.00
2019-01-03T18:13:29.865Z,90.29
2019-01-03T18:15:58.387Z,90.48
2019-01-03T18:18:26.923Z,90.66
2019-01-03T18:20:55.355Z,90.87
2019-01-03T18:23:24.117Z,90.94
2019-01-03T18:25:53.680Z,91.04
2019-01-03T18:28:22.388Z,91.19
2019-01-03T18:30:51.108Z,91.27
2019-01-03T18:33:19.792Z,91.48
2019-01-03T18:35:48.516Z,91.62
2019-01-03T18:38:17.279Z,91.52
2019-01-03T18:40:45.986Z,91.70
2019-01-03T18:43:14.991Z,91.77
2019-01-03T18:45:43.428Z,91.71
2019-01-03T18:48:13.022Z,91.75
2019-01-03T18:50:41.449Z,91.77
2019-01-03T18:53:10.120Z,91.73
2019-01-03T18:55:39.878Z,91.88
2019-01-03T18:58:08.696Z,91.78
2019-01-03T19:00:37.525Z,92.02
2019-01-03T19:03:06.226Z,92.06
2019-01-03T19:05:34.980Z,91.93
2019-01-03T19:08:03.686Z,91.97
2019-01-03T19:10:32.472Z,92.08
2019-01-03T19:13:01.194Z,92.26
2019-01-03T19:15:29.879Z,92.40
2019-01-03T19:17:58.641Z,92.40
2019-01-03T19:20:27.332Z,92.43
2019-01-03T19:22:56.056Z,92.62
2019-01-03T19:25:24.490Z,92.57
2019-01-03T19:27:53.022Z,92.64
2019-01-03T19:30:22.177Z,92.68
2019-01-03T19:32:50.867Z,92.69
2019-01-03T19:35:19.561Z,92.80
2019-01-03T19:37:48.823Z,92.79
2019-01-03T19:40:17.586Z,92.99
2019-01-03T19:42:46.358Z,93.02
2019-01-03T19:45:14.866Z,92.89
2019-01-03T19:47:43.551Z,93.06
2019-01-03T19:50:15.161Z,93.22
2019-01-03T19:52:43.938Z,93.16
2019-01-03T19:55:12.657Z,93.26
2019-01-03T19:57:41.067Z,93.36
2019-01-03T20:00:12.399Z,93.44
2019-01-03T20:02:40.803Z,93.56
2019-01-03T20:05:09.788Z,93.54
2019-01-03T20:07:38.770Z,93.73
2019-01-03T20:10:11.972Z,93.77
2019-01-03T20:12:40.548Z,93.97
2019-01-03T20:15:11.417Z,94.01
2019-01-03T20:17:40.276Z,94.01
2019-01-03T20:20:10.613Z,94.13
2019-01-03T20:22:39.528Z,94.15
2019-01-03T20:25:10.169Z,94.19
2019-01-03T20:27:38.982Z,94.29
2019-01-03T20:30:10.439Z,94.24
2019-01-03T20:32:39.219Z,94.27
2019-01-03T20:35:08.492Z,94.30
2019-01-03T20:37:37.316Z,94.48
2019-01-03T20:40:09.164Z,94.43
2019-01-03T20:42:38.173Z,94.52
2019-01-03T20:45:10.240Z,94.42
2019-01-03T20:47:38.777Z,94.49
2019-01-03T20:50:10.186Z,94.47
2019-01-03T20:52:38.461Z,94.50
2019-01-03T20:55:09.384Z,94.64
2019-01-03T20:57:38.247Z,94.62
2019-01-03T21:00:12.690Z,94.68
2019-01-03T21:02:42.725Z,94.75
2019-01-03T21:05:11.464Z,94.75
2019-01-03T21:07:39.957Z,94.82
2019-01-03T21:10:10.717Z,94.71
2019-01-03T21:12:39.581Z,94.75
2019-01-03T21:15:14.244Z,94.79
2019-01-03T21:17:43.850Z,94.85
2019-01-03T21:20:14.598Z,94.76
2019-01-03T21:22:43.199Z,94.88
2019-01-03T21:25:13.651Z,94.86
2019-01-03T21:27:42.777Z,94.80
2019-01-03T21:30:14.398Z,95.00
2019-01-03T21:32:42.912Z,95.00
2019-01-03T21:35:11.457Z,95.04
2019-01-03T21:37:40.305Z,95.02
2019-01-03T21:40:11.127Z,95.15
2019-01-03T21:42:39.976Z,95.26
2019-01-03T21:45:09.330Z,95.30
2019-01-03T21:47:37.908Z,95.38
2019-01-03T21:50:09.733Z,95.45
2019-01-03T21:52:38.586Z,95.46
2019-01-03T21:55:07.434Z,95.57
2019-01-03T21:57:36.181Z,95.65
2019-01-03T22:00:10.109Z,95.64
2019-01-03T22:02:38.795Z,95.67
2019-01-03T22:05:08.120Z,95.67
2019-01-03T22:07:36.922Z,95.75
2019-01-03T22:10:08.900Z,95.77
2019-01-03T22:12:37.675Z,95.81
2019-01-03T22:15:07.940Z,95.82
2019-01-03T22:17:36.778Z,95.87
2019-01-03T22:20:07.701Z,95.78
2019-01-03T22:22:36.420Z,95.78
2019-01-03T22:25:06.799Z,95.63
2019-01-03T22:27:35.313Z,95.77
2019-01-03T22:30:05.851Z,95.37
2019-01-03T22:32:34.588Z,95.76
2019-01-03T22:35:03.417Z,95.60
2019-01-03T22:37:32.149Z,95.51
2019-01-03T22:40:00.629Z,95.51
2019-01-03T22:42:29.326Z,95.36
2019-01-03T22:44:57.732Z,95.23
2019-01-03T22:47:26.431Z,95.33
2019-01-03T22:49:58.735Z,95.46
2019-01-03T22:52:27.225Z,95.33
2019-01-03T22:54:55.928Z,95.46
2019-01-03T22:57:25.103Z,95.59
2019-01-03T22:59:54.340Z,95.46
2019-01-03T23:02:24.690Z,95.58
2019-01-03T23:04:54.365Z,95.65
2019-01-03T23:07:23.355Z,95.52
2019-01-03T23:09:52.152Z,95.50
2019-01-03T23:12:20.818Z,95.57
2019-01-03T23:14:49.522Z,95.41
2019-01-03T23:17:19.003Z,95.57
2019-01-03T23:19:47.707Z,95.63
2019-01-03T23:22:16.128Z,95.69
2019-01-03T23:24:44.853Z,95.54
2019-01-03T23:27:13.613Z,95.58
2019-01-03T23:29:42.324Z,95.56
2019-01-03T23:32:12.318Z,95.56
2019-01-03T23:34:41.093Z,95.48
2019-01-03T23:37:09.866Z,95.45
2019-01-03T23:39:39.849Z,95.61
2019-01-03T23:42:08.544Z,95.57
2019-01-03T23:44:37.261Z,95.67
2019-01-03T23:47:05.694Z,95.60
2019-01-03T23:49:34.438Z,95.55
2019-01-03T23:52:03.230Z,95.36
2019-01-03T23:54:31.766Z,95.30
2019-01-03T23:57:00.538Z,95.44
2019-01-03T23:59:29.336Z,95.35
